Time;durP1;ratioP1;P1;durP2;ratioP2;P2;SDS_P1;SDS_P2;PMS_P1;PMS_P2;Temp;Humidity;BMP_temperature;BMP_pressure;BME280_temperature;BME280_humidity;BME280_pressure;Samples;Min_cycle;Max_cycle;Signal;HPM_P1;HPM_P2
2023/12/24 05:07:18;;;;;;;0.30;0.30;;;9.70;99.90;;;;;;5365153;23;20712;-61
2023/12/24 05:09:44;;;;;;;0.30;0.30;;;9.60;99.90;;;;;;4937023;29;20174;-60
2023/12/24 05:12:09;;;;;;;0.30;0.30;;;9.60;99.90;;;;;;4939061;29;20181;-60
2023/12/24 05:14:35;;;;;;;0.30;0.30;;;9.60;99.90;;;;;;4938644;29;20183;-61
2023/12/24 05:17:02;;;;;;;0.20;0.20;;;9.60;99.90;;;;;;4938782;29;20704;-60
2023/12/24 05:19:28;;;;;;;0.30;0.30;;;9.60;99.90;;;;;;4938891;29;20773;-61
2023/12/24 05:21:54;;;;;;;0.30;0.30;;;9.60;99.90;;;;;;4938827;29;20260;-61
2023/12/24 05:24:19;;;;;;;0.30;0.30;;;9.60;99.90;;;;;;4938599;29;20260;-60
2023/12/24 05:26:45;;;;;;;0.30;0.30;;;9.50;99.90;;;;;;4938581;29;20194;-60
2023/12/24 05:29:10;;;;;;;0.50;0.50;;;9.50;99.90;;;;;;4938647;29;20173;-61
2023/12/24 05:31:40;;;;;;;0.30;0.30;;;9.40;99.90;;;;;;4938487;29;20205;-61
2023/12/24 05:34:06;;;;;;;0.40;0.40;;;9.40;99.90;;;;;;4938511;29;20688;-61
2023/12/24 05:36:33;;;;;;;0.30;0.30;;;9.40;99.90;;;;;;4937387;29;20190;-61
2023/12/24 05:38:59;;;;;;;0.30;0.30;;;9.40;99.90;;;;;;4938841;29;20170;-60
2023/12/24 05:41:24;;;;;;;0.30;0.30;;;9.30;99.90;;;;;;4938402;29;20661;-61
2023/12/24 05:43:50;;;;;;;0.30;0.30;;;9.30;99.90;;;;;;4937434;29;20206;-60
2023/12/24 05:46:16;;;;;;;0.30;0.30;;;9.40;99.90;;;;;;4937969;29;20194;-60
2023/12/24 05:48:42;;;;;;;0.40;0.40;;;9.40;99.90;;;;;;4938231;29;20232;-60
2023/12/24 05:51:08;;;;;;;0.30;0.30;;;9.40;99.90;;;;;;4938368;29;20260;-60
2023/12/24 05:53:34;;;;;;;0.30;0.30;;;9.40;99.90;;;;;;4938117;29;20181;-60
2023/12/24 05:55:59;;;;;;;0.30;0.27;;;9.40;99.90;;;;;;4937886;29;20585;-60
2023/12/24 05:58:25;;;;;;;0.20;0.20;;;9.50;99.90;;;;;;4938158;29;20173;-60
2023/12/24 06:00:52;;;;;;;0.30;0.30;;;9.50;99.90;;;;;;4938185;29;20252;-60
2023/12/24 06:03:18;;;;;;;0.30;0.30;;;9.50;99.90;;;;;;4938052;29;20457;-60
2023/12/24 06:05:44;;;;;;;0.30;0.30;;;9.50;99.90;;;;;;4937554;29;20553;-61
2023/12/24 06:08:12;;;;;;;0.35;0.35;;;9.60;99.90;;;;;;4937814;29;20634;-60
2023/12/24 06:10:37;;;;;;;0.30;0.30;;;9.60;99.90;;;;;;4938050;29;20538;-61
2023/12/24 06:13:03;;;;;;;0.33;0.33;;;9.60;99.90;;;;;;4938019;29;20184;-60
2023/12/24 06:15:29;;;;;;;0.30;0.30;;;9.60;99.90;;;;;;4937337;29;20193;-61
2023/12/24 06:17:55;;;;;;;0.30;0.30;;;9.60;99.90;;;;;;4936414;29;20527;-61
2023/12/24 06:20:20;;;;;;;0.30;0.30;;;9.60;99.90;;;;;;4937594;29;20182;-60
2023/12/24 06:22:46;;;;;;;0.30;0.30;;;9.60;99.90;;;;;;4937435;29;20210;-61
2023/12/24 06:25:11;;;;;;;0.30;0.30;;;9.70;99.90;;;;;;4937030;29;20251;-60
2023/12/24 06:27:37;;;;;;;0.30;0.30;;;9.70;99.90;;;;;;4937552;29;20182;-61
2023/12/24 06:30:03;;;;;;;0.27;0.27;;;9.60;99.90;;;;;;4937639;29;20245;-61
2023/12/24 06:32:29;;;;;;;0.40;0.40;;;9.60;99.90;;;;;;4937520;29;20542;-61
2023/12/24 06:34:54;;;;;;;0.30;0.30;;;9.60;99.90;;;;;;4937047;29;20182;-61
2023/12/24 06:37:20;;;;;;;0.30;0.30;;;9.60;99.90;;;;;;4937532;29;20266;-61
2023/12/24 06:39:45;;;;;;;0.30;0.30;;;9.60;99.90;;;;;;4937377;29;20200;-61
2023/12/24 06:42:11;;;;;;;0.30;0.30;;;9.60;99.90;;;;;;4937433;29;20207;-61
2023/12/24 06:44:36;;;;;;;0.30;0.30;;;9.60;99.90;;;;;;4937203;29;20254;-61
2023/12/24 06:47:02;;;;;;;0.20;0.20;;;9.60;99.90;;;;;;4937223;29;20194;-61
2023/12/24 06:49:29;;;;;;;0.30;0.30;;;9.60;99.90;;;;;;4937160;29;20295;-62
2023/12/24 06:51:54;;;;;;;0.30;0.30;;;9.70;99.90;;;;;;4937124;29;20702;-61
2023/12/24 06:54:20;;;;;;;0.30;0.30;;;9.70;99.90;;;;;;4936959;29;20174;-61
2023/12/24 06:56:45;;;;;;;0.30;0.30;;;9.70;99.90;;;;;;4936981;29;20265;-61
2023/12/24 06:59:11;;;;;;;0.30;0.30;;;9.70;99.90;;;;;;4937185;29;20209;-60
2023/12/24 07:01:37;;;;;;;0.30;0.30;;;9.70;99.90;;;;;;4936892;29;20181;-61
2023/12/24 07:04:03;;;;;;;0.30;0.20;;;9.70;99.90;;;;;;4936807;29;20292;-61
2023/12/24 07:06:28;;;;;;;0.30;0.30;;;9.70;99.90;;;;;;4936259;29;20445;-61
2023/12/24 07:08:54;;;;;;;0.30;0.30;;;9.70;99.90;;;;;;4936640;29;20170;-61
2023/12/24 07:11:19;;;;;;;0.30;0.30;;;9.70;99.90;;;;;;4936706;29;20254;-61
2023/12/24 07:13:45;;;;;;;0.30;0.30;;;9.70;99.90;;;;;;4936734;29;20656;-61
2023/12/24 07:16:11;;;;;;;0.30;0.30;;;9.70;99.90;;;;;;4936287;29;20193;-61
2023/12/24 07:18:36;;;;;;;0.30;0.20;;;9.70;99.90;;;;;;4936777;29;20178;-61
2023/12/24 07:21:02;;;;;;;0.30;0.30;;;9.70;99.90;;;;;;4936743;29;20192;-61
2023/12/24 07:23:28;;;;;;;0.30;0.30;;;9.70;99.90;;;;;;4936656;29;20284;-61
2023/12/24 07:25:54;;;;;;;0.30;0.30;;;9.80;99.90;;;;;;4936268;29;20242;-61
2023/12/24 07:28:19;;;;;;;0.30;0.30;;;9.80;99.90;;;;;;4936634;29;20577;-61
2023/12/24 07:30:45;;;;;;;0.30;0.30;;;9.80;99.90;;;;;;4936770;29;20166;-61
2023/12/24 07:33:10;;;;;;;0.30;0.30;;;9.90;99.90;;;;;;4935613;29;20256;-62
2023/12/24 07:35:36;;;;;;;0.30;0.30;;;9.90;99.90;;;;;;4936022;29;20236;-61
2023/12/24 07:38:01;;;;;;;0.30;0.30;;;9.90;99.90;;;;;;4936576;29;20170;-62
2023/12/24 07:40:27;;;;;;;0.30;0.30;;;9.90;99.90;;;;;;4936359;29;20174;-61
2023/12/24 07:42:52;;;;;;;0.30;0.30;;;9.90;99.90;;;;;;4936210;29;20276;-62
2023/12/24 07:45:19;;;;;;;0.30;0.30;;;9.90;99.90;;;;;;4935996;29;20189;-60
2023/12/24 07:47:44;;;;;;;0.30;0.30;;;9.90;99.90;;;;;;4936299;29;20179;-60
2023/12/24 07:50:10;;;;;;;0.30;0.30;;;9.90;99.90;;;;;;4936315;29;20515;-61
2023/12/24 07:52:36;;;;;;;0.30;0.30;;;9.90;99.90;;;;;;4935997;29;20201;-61
2023/12/24 07:55:01;;;;;;;0.30;0.30;;;9.90;99.90;;;;;;4935791;29;20192;-60
2023/12/24 07:57:27;;;;;;;0.30;0.30;;;9.90;99.90;;;;;;4935010;29;20249;-60
2023/12/24 07:59:53;;;;;;;0.30;0.30;;;9.90;99.90;;;;;;4936118;29;20692;-61
2023/12/24 08:02:18;;;;;;;0.30;0.30;;;9.90;99.90;;;;;;4936110;29;20550;-61
2023/12/24 08:04:45;;;;;;;0.30;0.30;;;9.90;99.90;;;;;;4935704;29;20173;-61
2023/12/24 08:07:10;;;;;;;0.30;0.30;;;9.90;99.90;;;;;;4935891;29;20209;-62
2023/12/24 08:09:36;;;;;;;0.30;0.30;;;9.90;99.90;;;;;;4936066;29;20174;-61
2023/12/24 08:12:02;;;;;;;0.30;0.30;;;9.90;99.90;;;;;;4936061;29;20648;-60
2023/12/24 08:14:28;;;;;;;0.40;0.40;;;9.90;99.90;;;;;;4935832;29;20198;-60
2023/12/24 08:16:54;;;;;;;0.30;0.30;;;10.00;99.90;;;;;;4935723;29;20297;-61
2023/12/24 08:19:19;;;;;;;0.30;0.30;;;10.10;99.90;;;;;;4935798;29;20176;-61
2023/12/24 08:21:45;;;;;;;0.30;0.30;;;10.10;99.90;;;;;;4936104;29;20663;-62
2023/12/24 08:24:10;;;;;;;0.30;0.30;;;10.20;99.90;;;;;;4935594;29;20287;-62
2023/12/24 08:26:36;;;;;;;0.30;0.30;;;10.20;99.90;;;;;;4936000;29;20185;-61
2023/12/24 08:29:01;;;;;;;0.30;0.30;;;10.30;99.90;;;;;;4935782;29;20173;-61
2023/12/24 08:31:27;;;;;;;0.40;0.40;;;10.30;99.90;;;;;;4935909;29;20173;-61
2023/12/24 08:33:53;;;;;;;0.30;0.20;;;10.40;99.90;;;;;;4936126;29;20257;-62
2023/12/24 08:36:18;;;;;;;0.30;0.30;;;10.50;99.90;;;;;;4935453;29;20194;-62
2023/12/24 08:38:44;;;;;;;0.30;0.30;;;10.40;99.90;;;;;;4935978;29;20173;-62
2023/12/24 08:41:09;;;;;;;0.30;0.30;;;10.50;99.90;;;;;;4935817;29;20205;-61
2023/12/24 08:43:35;;;;;;;0.33;0.33;;;10.50;99.90;;;;;;4935841;29;20205;-61
2023/12/24 08:46:03;;;;;;;0.30;0.30;;;10.50;99.90;;;;;;4937690;29;20285;-62
2023/12/24 08:48:29;;;;;;;0.30;0.30;;;10.50;99.90;;;;;;4939227;29;20178;-61
2023/12/24 08:50:56;;;;;;;0.30;0.30;;;10.60;99.90;;;;;;4939248;29;20193;-62
2023/12/24 08:53:22;;;;;;;0.30;0.30;;;10.60;99.90;;;;;;4939391;29;20263;-61
2023/12/24 08:55:47;;;;;;;0.30;0.20;;;10.60;99.90;;;;;;4938928;29;20611;-62
2023/12/24 08:58:13;;;;;;;0.30;0.20;;;10.60;99.90;;;;;;4939257;29;20212;-64
2023/12/24 09:00:38;;;;;;;0.30;0.30;;;10.60;99.90;;;;;;4939322;29;20208;-63
2023/12/24 09:03:04;;;;;;;0.30;0.30;;;10.70;99.90;;;;;;4939166;29;20675;-62
2023/12/24 09:05:30;;;;;;;0.30;0.30;;;10.70;99.90;;;;;;4937624;29;20619;-62
2023/12/24 09:07:55;;;;;;;0.30;0.30;;;10.70;99.90;;;;;;4937886;29;20194;-62
2023/12/24 09:10:21;;;;;;;0.30;0.30;;;10.80;99.90;;;;;;4939072;29;20527;-62
2023/12/24 09:12:46;;;;;;;0.30;0.30;;;10.80;99.90;;;;;;4939012;29;20631;-62
2023/12/24 09:15:12;;;;;;;0.37;0.37;;;10.90;99.90;;;;;;4938433;29;20200;-63
2023/12/24 09:17:38;;;;;;;1.33;1.23;;;10.90;99.90;;;;;;4938800;29;20640;-62
2023/12/24 09:20:04;;;;;;;0.30;0.30;;;10.90;99.90;;;;;;4938938;29;20266;-64
2023/12/24 09:22:30;;;;;;;0.30;0.30;;;10.90;99.90;;;;;;4938556;29;20209;-62
2023/12/24 09:24:55;;;;;;;0.30;0.30;;;10.90;99.90;;;;;;4938577;29;20404;-63
2023/12/24 09:27:21;;;;;;;0.30;0.20;;;10.90;99.90;;;;;;4938726;29;20238;-62
2023/12/24 09:29:47;;;;;;;0.30;0.30;;;10.90;99.90;;;;;;4938556;29;20597;-62
2023/12/24 09:32:12;;;;;;;0.30;0.30;;;10.80;99.90;;;;;;4938733;29;20187;-59
2023/12/24 09:34:38;;;;;;;0.30;0.30;;;10.80;99.90;;;;;;4938276;29;20182;-61
2023/12/24 09:37:03;;;;;;;0.30;0.30;;;10.70;99.90;;;;;;4938461;29;20216;-62
2023/12/24 09:39:29;;;;;;;0.30;0.30;;;10.70;99.90;;;;;;4938576;29;20203;-62
2023/12/24 09:41:55;;;;;;;0.30;0.20;;;10.60;99.90;;;;;;4938518;29;20179;-61
2023/12/24 09:44:22;;;;;;;0.30;0.30;;;10.60;99.90;;;;;;4938086;29;20670;-63
2023/12/24 09:46:48;;;;;;;0.30;0.30;;;10.60;99.90;;;;;;4938165;29;20933;-61
2023/12/24 09:49:13;;;;;;;0.30;0.30;;;10.60;99.90;;;;;;4938157;29;20265;-62
2023/12/24 09:51:41;;;;;;;0.30;0.30;;;10.60;99.90;;;;;;4938374;29;20170;-62
2023/12/24 09:54:07;;;;;;;0.30;0.30;;;10.60;99.90;;;;;;4937879;29;20254;-63
2023/12/24 09:56:33;;;;;;;0.30;0.30;;;10.60;99.90;;;;;;4937166;29;20219;-63
2023/12/24 09:58:59;;;;;;;0.30;0.30;;;10.50;99.90;;;;;;4938158;29;20178;-62
2023/12/24 10:01:24;;;;;;;0.40;0.40;;;10.60;99.90;;;;;;4937884;29;20179;-62
2023/12/24 10:03:50;;;;;;;0.30;0.30;;;10.50;99.90;;;;;;4937673;29;20300;-63
2023/12/24 10:06:15;;;;;;;0.30;0.20;;;10.60;99.90;;;;;;4937629;29;20217;-62
2023/12/24 10:08:41;;;;;;;0.30;0.30;;;10.60;99.90;;;;;;4938105;29;20640;-62
2023/12/24 10:11:15;;;;;;;0.30;0.30;;;10.60;99.90;;;;;;4937984;29;20212;-62
2023/12/24 10:13:41;;;;;;;0.30;0.30;;;10.60;99.90;;;;;;4938011;29;20251;-63
2023/12/24 10:16:09;;;;;;;0.30;0.30;;;10.60;99.90;;;;;;4937817;29;20214;-62
2023/12/24 10:18:35;;;;;;;0.30;0.20;;;10.50;99.90;;;;;;4937882;29;20429;-62
2023/12/24 10:21:05;;;;;;;0.30;0.30;;;10.50;99.90;;;;;;4937818;29;20446;-63
2023/12/24 10:23:31;;;;;;;0.30;0.30;;;10.50;99.90;;;;;;4937549;29;20563;-61
2023/12/24 10:26:02;;;;;;;0.30;0.30;;;10.50;99.90;;;;;;4937117;29;20207;-62
2023/12/24 10:28:27;;;;;;;0.30;0.30;;;10.50;99.90;;;;;;4937660;29;20181;-61
2023/12/24 10:31:08;;;;;;;0.30;0.30;;;10.50;99.90;;;;;;4937630;29;20907;-62
2023/12/24 10:33:37;;;;;;;0.30;0.30;;;10.60;99.90;;;;;;4937527;29;20189;-62
2023/12/24 10:36:03;;;;;;;0.30;0.30;;;10.60;99.90;;;;;;4937032;29;20442;-62
2023/12/24 10:38:29;;;;;;;0.40;0.40;;;10.60;99.90;;;;;;4937437;29;20803;-61
2023/12/24 10:40:55;;;;;;;0.30;0.30;;;10.60;99.90;;;;;;4937527;29;20187;-61
2023/12/24 10:43:21;;;;;;;0.30;0.27;;;10.70;99.90;;;;;;4937745;29;20492;-62
2023/12/24 10:45:46;;;;;;;0.30;0.30;;;10.60;99.90;;;;;;4936960;29;20786;-61
2023/12/24 10:48:13;;;;;;;0.30;0.30;;;10.60;99.90;;;;;;4937323;29;20242;-62
2023/12/24 10:50:39;;;;;;;0.30;0.20;;;10.70;99.90;;;;;;4937266;29;20166;-61
2023/12/24 10:53:05;;;;;;;0.40;0.40;;;10.70;99.90;;;;;;4937200;29;20418;-61
2023/12/24 10:55:33;;;;;;;0.40;0.40;;;10.80;99.90;;;;;;4936785;29;20300;-61
2023/12/24 10:58:34;;;;;;;0.30;0.30;;;10.80;99.90;;;;;;4937183;29;20548;-61
2023/12/24 11:01:18;;;;;;;0.30;0.30;;;10.80;99.90;;;;;;4937246;29;20866;-61
2023/12/24 11:03:48;;;;;;;0.30;0.30;;;10.90;99.90;;;;;;4936420;29;20625;-61
2023/12/24 11:06:36;;;;;;;0.30;0.30;;;10.90;99.90;;;;;;4936575;29;20806;-61
2023/12/24 11:09:04;;;;;;;0.30;0.30;;;10.90;99.90;;;;;;4936883;29;20396;-61
2023/12/24 11:11:56;;;;;;;0.30;0.30;;;10.90;99.90;;;;;;4936687;29;20551;-61
2023/12/24 11:14:37;;;;;;;0.30;0.30;;;10.90;99.90;;;;;;4936515;29;20412;-61
2023/12/24 11:17:05;;;;;;;0.30;0.20;;;10.90;99.90;;;;;;4936495;29;20431;-62
2023/12/24 11:19:32;;;;;;;0.30;0.30;;;10.90;99.90;;;;;;4936623;29;20415;-62
2023/12/24 11:22:06;;;;;;;0.30;0.30;;;10.90;99.90;;;;;;4936740;29;20414;-61
2023/12/24 11:24:32;;;;;;;0.30;0.30;;;10.90;99.90;;;;;;4936186;29;20514;-62
2023/12/24 11:26:57;;;;;;;0.30;0.30;;;11.00;99.90;;;;;;4936415;29;20511;-62
2023/12/24 11:29:43;;;;;;;0.30;0.30;;;11.00;99.90;;;;;;4936704;29;20563;-63
2023/12/24 11:32:26;;;;;;;0.30;0.30;;;11.00;99.90;;;;;;4936382;29;20181;-60
2023/12/24 11:34:57;;;;;;;0.30;0.30;;;11.10;99.90;;;;;;4936110;29;20762;-61
2023/12/24 11:37:34;;;;;;;0.30;0.20;;;11.10;99.90;;;;;;4936285;29;20498;-61
2023/12/24 11:40:14;;;;;;;0.30;0.30;;;11.10;99.90;;;;;;4936452;29;20382;-60
2023/12/24 11:42:50;;;;;;;0.30;0.30;;;11.10;99.90;;;;;;4935241;29;20471;-60
2023/12/24 11:45:29;;;;;;;0.40;0.40;;;11.10;99.90;;;;;;4936058;29;20444;-62
2023/12/24 11:47:55;;;;;;;0.30;0.30;;;11.20;99.90;;;;;;4936600;29;20387;-62
2023/12/24 11:50:21;;;;;;;0.30;0.30;;;11.20;99.90;;;;;;4936303;29;20418;-62
2023/12/24 11:52:48;;;;;;;0.30;0.30;;;11.20;99.90;;;;;;4936433;29;20416;-61
2023/12/24 11:55:18;;;;;;;0.37;0.37;;;11.20;99.90;;;;;;4936008;29;20401;-61
2023/12/24 11:57:51;;;;;;;0.30;0.30;;;11.30;99.90;;;;;;4936460;29;20394;-62
2023/12/24 12:00:27;;;;;;;0.30;0.30;;;11.30;99.90;;;;;;4936155;29;20451;-61
2023/12/24 12:02:57;;;;;;;0.30;0.30;;;11.40;99.90;;;;;;4936200;29;20494;-61
2023/12/24 12:05:24;;;;;;;0.30;0.30;;;11.40;99.90;;;;;;4935813;29;20788;-60
2023/12/24 12:07:50;;;;;;;0.30;0.30;;;11.50;99.90;;;;;;4936066;29;20441;-62
2023/12/24 12:10:17;;;;;;;0.30;0.30;;;11.50;99.90;;;;;;4934835;29;21000;-61
2023/12/24 12:12:43;;;;;;;0.30;0.20;;;11.60;99.90;;;;;;4935819;29;20408;-61
2023/12/24 12:15:09;;;;;;;0.30;0.20;;;11.60;99.90;;;;;;4935811;29;20514;-61
2023/12/24 12:17:34;;;;;;;0.30;0.20;;;11.70;99.90;;;;;;4935964;29;20448;-61
2023/12/24 12:20:00;;;;;;;0.30;0.20;;;11.70;99.90;;;;;;4938263;29;20468;-62
2023/12/24 12:22:25;;;;;;;0.30;0.30;;;11.80;99.90;;;;;;4939912;29;20259;-62
2023/12/24 12:24:51;;;;;;;0.30;0.20;;;11.80;99.90;;;;;;4939545;29;20223;-62
2023/12/24 12:27:16;;;;;;;0.30;0.30;;;11.90;99.90;;;;;;4939617;29;20184;-62
2023/12/24 12:29:42;;;;;;;0.30;0.30;;;12.00;99.90;;;;;;4939685;29;20173;-61
2023/12/24 12:32:07;;;;;;;0.30;0.20;;;12.10;99.90;;;;;;4939979;29;20635;-61
2023/12/24 12:34:34;;;;;;;0.30;0.30;;;12.20;99.90;;;;;;4939498;29;20203;-62
2023/12/24 12:36:59;;;;;;;0.37;0.37;;;12.20;99.90;;;;;;4939540;29;20223;-61
2023/12/24 12:39:25;;;;;;;0.30;0.30;;;12.30;99.90;;;;;;4939589;29;20476;-61
2023/12/24 12:41:51;;;;;;;0.30;0.30;;;12.30;99.90;;;;;;4940102;29;20169;-62
2023/12/24 12:44:17;;;;;;;0.30;0.30;;;12.40;99.90;;;;;;4939096;29;20200;-61
2023/12/24 12:46:43;;;;;;;0.30;0.20;;;12.40;99.90;;;;;;4939460;29;20437;-62
2023/12/24 12:49:10;;;;;;;0.30;0.30;;;12.40;99.90;;;;;;4939405;29;20210;-61
2023/12/24 12:51:36;;;;;;;0.30;0.20;;;12.40;99.90;;;;;;4939453;29;20198;-62
2023/12/24 12:54:10;;;;;;;0.30;0.30;;;12.40;99.90;;;;;;4939249;29;20412;-61
2023/12/24 12:56:44;;;;;;;0.30;0.30;;;12.40;99.90;;;;;;4939330;29;20450;-61
2023/12/24 12:59:22;;;;;;;0.30;0.20;;;12.40;99.90;;;;;;4939439;29;20417;-61
2023/12/24 13:01:48;;;;;;;0.30;0.30;;;12.40;99.90;;;;;;4939260;29;20495;-61
2023/12/24 13:04:34;;;;;;;0.30;0.20;;;12.40;99.90;;;;;;4937577;29;20465;-61
2023/12/24 13:07:02;;;;;;;0.30;0.30;;;12.40;99.90;;;;;;4939007;29;20470;-61
2023/12/24 13:09:32;;;;;;;0.30;0.30;;;12.40;99.90;;;;;;4939186;29;20412;-61
2023/12/24 13:12:05;;;;;;;0.30;0.30;;;12.40;99.90;;;;;;4937835;29;20468;-61
2023/12/24 13:14:34;;;;;;;0.30;0.30;;;12.50;99.90;;;;;;4938639;29;20479;-62
2023/12/24 13:17:10;;;;;;;0.30;0.30;;;12.40;99.90;;;;;;4938804;29;20432;-62
2023/12/24 13:19:38;;;;;;;0.30;0.30;;;12.40;99.90;;;;;;4938845;29;20490;-62
2023/12/24 13:22:05;;;;;;;0.30;0.27;;;12.40;99.90;;;;;;4939003;29;20409;-62
2023/12/24 13:24:30;;;;;;;0.30;0.20;;;12.40;99.90;;;;;;4938570;29;20556;-61
2023/12/24 13:26:57;;;;;;;0.30;0.30;;;12.40;99.90;;;;;;4938699;29;20907;-62
2023/12/24 13:29:23;;;;;;;0.30;0.20;;;12.30;99.90;;;;;;4938815;29;20440;-61
2023/12/24 13:31:48;;;;;;;0.30;0.30;;;12.20;99.90;;;;;;4938575;29;20422;-61
2023/12/24 13:34:14;;;;;;;0.30;0.30;;;12.20;99.90;;;;;;4938287;29;20176;-62
2023/12/24 13:36:40;;;;;;;0.30;0.30;;;12.20;99.90;;;;;;4938629;29;20676;-62
2023/12/24 13:39:05;;;;;;;0.30;0.30;;;12.10;99.90;;;;;;4938621;29;20540;-62
2023/12/24 13:41:31;;;;;;;0.30;0.30;;;12.10;99.90;;;;;;4938506;29;20416;-62
2023/12/24 13:43:57;;;;;;;0.30;0.20;;;12.10;99.90;;;;;;4938430;29;20572;-62
2023/12/24 13:46:22;;;;;;;0.30;0.30;;;12.10;99.90;;;;;;4938038;29;20195;-62
2023/12/24 13:48:48;;;;;;;0.30;0.30;;;12.10;99.90;;;;;;4938300;29;20290;-61
2023/12/24 13:51:17;;;;;;;0.30;0.30;;;12.00;99.90;;;;;;4938325;29;20172;-62
2023/12/24 13:53:43;;;;;;;0.30;0.20;;;11.90;99.90;;;;;;4938336;29;20214;-62
2023/12/24 13:56:09;;;;;;;0.30;0.20;;;11.90;99.90;;;;;;4937866;29;20956;-62
2023/12/24 13:58:35;;;;;;;0.30;0.20;;;11.80;99.90;;;;;;4938204;29;20458;-62
2023/12/24 14:01:02;;;;;;;0.30;0.30;;;11.80;99.90;;;;;;4938270;29;20673;-62
2023/12/24 14:03:27;;;;;;;0.30;0.30;;;11.80;99.90;;;;;;4938068;29;20223;-62
2023/12/24 14:05:55;;;;;;;0.30;0.30;;;11.80;99.90;;;;;;4936291;29;20935;-63
2023/12/24 14:08:21;;;;;;;0.30;0.30;;;11.80;99.90;;;;;;4938096;29;20509;-62
2023/12/24 14:10:46;;;;;;;0.30;0.30;;;11.70;99.90;;;;;;4936795;29;20466;-64
2023/12/24 14:13:12;;;;;;;0.30;0.30;;;11.70;99.90;;;;;;4937834;29;20220;-62
2023/12/24 14:15:37;;;;;;;0.30;0.30;;;11.70;99.90;;;;;;4937663;29;20247;-62
2023/12/24 14:18:04;;;;;;;0.30;0.30;;;11.60;99.90;;;;;;4937764;29;20279;-62
2023/12/24 14:20:29;;;;;;;0.30;0.30;;;11.60;99.90;;;;;;4920704;29;20185;-62
2023/12/24 14:22:55;;;;;;;0.30;0.30;;;11.60;99.90;;;;;;4937590;29;20514;-61
2023/12/24 14:25:21;;;;;;;0.30;0.30;;;11.60;99.90;;;;;;4937346;29;20281;-62
2023/12/24 14:27:47;;;;;;;0.30;0.30;;;11.60;99.90;;;;;;4937745;29;20177;-62
2023/12/24 14:30:15;;;;;;;0.30;0.30;;;11.60;99.90;;;;;;4937543;29;20438;-62
2023/12/24 14:32:41;;;;;;;0.30;0.30;;;11.60;99.90;;;;;;4937696;29;20184;-61
2023/12/24 14:35:08;;;;;;;0.30;0.20;;;11.50;99.90;;;;;;4937161;29;20431;-61
2023/12/24 14:37:35;;;;;;;0.30;0.30;;;11.50;99.90;;;;;;4937603;29;20417;-62
2023/12/24 14:40:02;;;;;;;0.30;0.30;;;11.50;99.90;;;;;;4937246;29;20420;-61
2023/12/24 14:42:28;;;;;;;0.30;0.30;;;11.50;99.90;;;;;;4936647;29;20432;-61
2023/12/24 14:44:54;;;;;;;0.30;0.30;;;11.60;99.90;;;;;;4935568;29;20392;-62
2023/12/24 14:47:24;;;;;;;0.30;0.30;;;11.50;99.90;;;;;;4937273;29;20770;-62
2023/12/24 14:49:50;;;;;;;0.33;0.33;;;11.50;99.90;;;;;;4937174;29;20414;-62
2023/12/24 14:52:16;;;;;;;0.30;0.30;;;11.50;99.90;;;;;;4937234;29;20398;-62
2023/12/24 14:54:42;;;;;;;0.30;0.30;;;11.50;99.90;;;;;;4936803;29;20423;-61
2023/12/24 14:57:08;;;;;;;0.30;0.20;;;11.50;99.90;;;;;;4936792;29;20208;-61
2023/12/24 14:59:33;;;;;;;0.30;0.30;;;11.50;99.90;;;;;;4937139;29;20442;-61
2023/12/24 15:02:00;;;;;;;0.30;0.30;;;11.50;99.90;;;;;;4937153;29;20185;-61
2023/12/24 15:04:26;;;;;;;0.30;0.30;;;11.50;99.90;;;;;;4936627;29;20873;-60
2023/12/24 15:06:52;;;;;;;0.50;0.50;;;11.50;99.90;;;;;;4936569;29;20976;-61
2023/12/24 15:09:18;;;;;;;0.30;0.20;;;11.50;99.90;;;;;;4936991;29;20410;-62
2023/12/24 15:11:44;;;;;;;0.30;0.20;;;11.50;99.90;;;;;;4936783;29;20407;-62
2023/12/24 15:14:09;;;;;;;0.37;0.37;;;11.50;99.90;;;;;;4936502;29;20174;-61
2023/12/24 15:16:38;;;;;;;0.30;0.30;;;11.60;99.90;;;;;;4936631;29;20675;-61
2023/12/24 15:19:04;;;;;;;0.30;0.30;;;11.60;99.90;;;;;;4936871;29;20515;-61
2023/12/24 15:21:29;;;;;;;0.30;0.30;;;11.60;99.90;;;;;;4935480;29;20275;-63
2023/12/24 15:23:55;;;;;;;0.30;0.20;;;11.60;99.90;;;;;;4935334;29;20241;-63
2023/12/24 15:26:24;;;;;;;0.40;0.40;;;11.60;99.90;;;;;;4936119;29;20190;-63
2023/12/24 15:28:50;;;;;;;0.30;0.20;;;11.50;99.90;;;;;;4936466;29;20197;-62
2023/12/24 15:31:16;;;;;;;0.30;0.20;;;11.50;99.90;;;;;;4936445;29;20991;-62
2023/12/24 15:33:42;;;;;;;0.30;0.30;;;11.50;99.90;;;;;;4936469;29;20424;-62
2023/12/24 15:36:08;;;;;;;0.30;0.20;;;11.40;99.90;;;;;;4936237;29;20788;-61
2023/12/24 15:38:34;;;;;;;0.30;0.20;;;11.50;99.90;;;;;;4935284;29;20234;-63
2023/12/24 15:40:59;;;;;;;0.30;0.30;;;11.50;99.90;;;;;;4936340;29;20524;-62
2023/12/24 15:43:27;;;;;;;0.40;0.40;;;11.40;99.90;;;;;;4936428;29;20210;-61
2023/12/24 15:45:53;;;;;;;0.30;0.20;;;11.40;99.90;;;;;;4935901;29;20193;-61
2023/12/24 15:48:20;;;;;;;0.30;0.30;;;11.40;99.90;;;;;;4936355;29;20406;-62
2023/12/24 15:50:45;;;;;;;0.30;0.30;;;11.40;99.90;;;;;;4936336;29;20419;-62
2023/12/24 15:53:11;;;;;;;0.40;0.40;;;11.40;99.90;;;;;;4935929;29;20898;-62
2023/12/24 15:55:39;;;;;;;0.30;0.30;;;11.40;99.90;;;;;;4935393;29;20200;-62
2023/12/24 15:58:05;;;;;;;0.30;0.30;;;11.40;99.90;;;;;;4936271;29;20204;-61
2023/12/24 16:00:33;;;;;;;0.30;0.30;;;11.40;99.90;;;;;;4936284;29;20174;-62
2023/12/24 16:02:58;;;;;;;0.30;0.30;;;11.40;99.90;;;;;;4936156;29;20527;-61
2023/12/24 16:05:26;;;;;;;0.30;0.20;;;11.40;99.90;;;;;;4935864;29;20415;-62
2023/12/24 16:07:52;;;;;;;0.30;0.30;;;11.40;99.90;;;;;;4935903;29;20196;-61
2023/12/24 16:10:18;;;;;;;0.30;0.20;;;11.40;99.90;;;;;;4936019;29;21000;-63
2023/12/24 16:12:44;;;;;;;0.40;0.40;;;11.40;99.90;;;;;;4936072;29;20266;-62
2023/12/24 16:15:10;;;;;;;0.30;0.20;;;11.30;99.90;;;;;;4935745;29;20436;-62
2023/12/24 16:17:38;;;;;;;0.30;0.30;;;11.40;99.90;;;;;;4936152;29;20205;-61
2023/12/24 16:20:08;;;;;;;0.30;0.30;;;11.40;99.90;;;;;;4936201;29;20260;-62
2023/12/24 16:22:34;;;;;;;0.30;0.20;;;11.40;99.90;;;;;;4936121;29;20673;-62
2023/12/24 16:25:03;;;;;;;0.30;0.20;;;11.40;99.90;;;;;;4934247;29;20175;-62
2023/12/24 16:27:32;;;;;;;0.30;0.30;;;11.40;99.90;;;;;;4935944;29;20426;-63
2023/12/24 16:30:01;;;;;;;0.30;0.30;;;11.40;99.90;;;;;;4935933;29;20419;-62
2023/12/24 16:32:26;;;;;;;0.30;0.30;;;11.40;99.90;;;;;;4935926;29;20415;-62
2023/12/24 16:34:53;;;;;;;0.30;0.20;;;11.40;99.90;;;;;;4935414;29;20515;-63
2023/12/24 16:37:19;;;;;;;0.30;0.30;;;11.40;99.90;;;;;;4935670;29;20644;-62
2023/12/24 16:39:46;;;;;;;0.30;0.30;;;11.40;99.90;;;;;;4935622;29;20425;-62
2023/12/24 16:42:11;;;;;;;0.30;0.30;;;11.40;99.90;;;;;;4935898;29;20172;-62
2023/12/24 16:44:37;;;;;;;0.30;0.20;;;11.40;99.90;;;;;;4950083;29;20473;-62
2023/12/24 16:47:03;;;;;;;0.30;0.30;;;11.40;99.90;;;;;;4934526;29;20196;-62
2023/12/24 16:49:28;;;;;;;0.30;0.20;;;11.40;99.90;;;;;;4936101;29;20251;-62
2023/12/24 16:51:54;;;;;;;0.30;0.30;;;11.40;99.90;;;;;;4935818;29;20428;-62
2023/12/24 16:54:20;;;;;;;0.30;0.30;;;11.50;99.90;;;;;;4935584;29;20177;-61
2023/12/24 16:56:46;;;;;;;0.30;0.30;;;11.50;99.90;;;;;;4935722;29;20231;-62
2023/12/24 16:59:12;;;;;;;0.30;0.30;;;11.50;99.90;;;;;;4935749;29;20504;-62
2023/12/24 17:01:44;;;;;;;0.30;0.30;;;11.50;99.90;;;;;;4935879;29;20505;-62
2023/12/24 17:04:09;;;;;;;0.30;0.30;;;11.40;99.90;;;;;;4935145;29;20211;-61
2023/12/24 17:06:35;;;;;;;0.30;0.30;;;11.50;99.90;;;;;;4938330;29;20540;-60
2023/12/24 17:09:03;;;;;;;0.30;0.20;;;11.50;99.90;;;;;;4938976;29;20222;-60
2023/12/24 17:11:28;;;;;;;0.30;0.20;;;11.50;99.90;;;;;;4939106;29;20171;-61
2023/12/24 17:13:54;;;;;;;0.30;0.30;;;11.50;99.90;;;;;;4938813;29;20421;-61
2023/12/24 17:16:20;;;;;;;0.30;0.30;;;11.50;99.90;;;;;;4938634;29;20698;-60
2023/12/24 17:18:45;;;;;;;0.30;0.20;;;11.60;99.90;;;;;;4938856;29;20179;-60
2023/12/24 17:21:11;;;;;;;0.30;0.30;;;11.60;99.90;;;;;;4938646;29;20188;-59
2023/12/24 17:23:37;;;;;;;0.30;0.30;;;11.50;99.90;;;;;;4938642;29;20217;-61
2023/12/24 17:26:03;;;;;;;0.30;0.30;;;11.60;99.90;;;;;;4938393;29;20203;-63
2023/12/24 17:28:29;;;;;;;0.30;0.20;;;11.60;99.90;;;;;;4938669;29;20411;-61
2023/12/24 17:30:55;;;;;;;0.30;0.30;;;11.50;99.90;;;;;;4938542;29;20571;-61
2023/12/24 17:33:21;;;;;;;0.30;0.30;;;11.60;99.90;;;;;;4938980;29;20503;-61
2023/12/24 17:35:46;;;;;;;0.30;0.20;;;11.60;99.90;;;;;;4938301;29;20203;-60
2023/12/24 17:38:13;;;;;;;0.30;0.20;;;11.60;99.90;;;;;;4938745;29;20192;-61
2023/12/24 17:40:38;;;;;;;0.30;0.20;;;11.60;99.90;;;;;;4938523;29;20218;-60
2023/12/24 17:43:04;;;;;;;0.30;0.20;;;11.50;99.90;;;;;;4938406;29;20505;-61
2023/12/24 17:45:30;;;;;;;0.30;0.20;;;11.50;99.90;;;;;;4938094;29;20229;-61
2023/12/24 17:47:55;;;;;;;0.30;0.30;;;11.50;99.90;;;;;;4938607;29;20179;-60
2023/12/24 17:50:21;;;;;;;0.30;0.30;;;11.50;99.90;;;;;;4938270;29;20185;-61
2023/12/24 17:52:46;;;;;;;0.30;0.30;;;11.50;99.90;;;;;;4938413;29;20184;-61
2023/12/24 17:55:12;;;;;;;0.30;0.30;;;11.50;99.90;;;;;;4937848;29;20202;-62